createdAt,value
2018-10-02T00:02:08.214Z,1.50
2018-10-02T00:04:37.438Z,4.50
2018-10-02T00:07:06.785Z,3.00
2018-10-02T00:09:36.089Z,4.00
2018-10-02T00:12:10.506Z,5.00
2018-10-02T00:14:39.804Z,3.50
2018-10-02T00:17:09.025Z,5.00
2018-10-02T00:19:41.788Z,3.00
2018-10-02T00:22:11.079Z,5.00
2018-10-02T00:24:40.243Z,3.50
2018-10-02T00:27:09.477Z,5.00
2018-10-02T00:29:38.963Z,2.00
2018-10-02T00:32:08.377Z,3.00
2018-10-02T00:34:37.683Z,3.00
2018-10-02T00:37:06.998Z,3.00
2018-10-02T00:39:36.409Z,4.50
2018-10-02T00:42:07.258Z,3.50
2018-10-02T00:44:36.515Z,3.00
2018-10-02T00:47:05.888Z,5.00
2018-10-02T00:49:35.325Z,6.00
2018-10-02T00:52:05.920Z,3.00
2018-10-02T00:54:35.212Z,3.00
2018-10-02T00:57:05.020Z,3.00
2018-10-02T00:59:34.332Z,3.00
2018-10-02T01:02:03.692Z,5.00
2018-10-02T01:04:33.202Z,5.00
2018-10-02T01:07:02.535Z,3.50
2018-10-02T01:09:31.803Z,5.00
2018-10-02T01:12:01.706Z,5.00
2018-10-02T01:14:30.891Z,5.00
2018-10-02T01:17:00.103Z,5.00
2018-10-02T01:19:29.358Z,3.00
2018-10-02T01:21:58.528Z,4.00
2018-10-02T01:24:27.803Z,5.00
2018-10-02T01:26:57.007Z,4.50
2018-10-02T01:29:26.315Z,5.00
2018-10-02T01:31:55.553Z,4.00
2018-10-02T01:34:25.302Z,5.00
2018-10-02T01:36:54.567Z,3.00
2018-10-02T01:39:23.843Z,5.00
2018-10-02T01:41:53.224Z,5.50
2018-10-02T01:44:26.529Z,4.00
2018-10-02T01:46:55.753Z,4.50
2018-10-02T01:49:25.106Z,5.00
2018-10-02T01:51:54.461Z,3.00
2018-10-02T01:54:23.841Z,3.00
2018-10-02T01:56:53.165Z,4.50
2018-10-02T01:59:22.568Z,5.00
2018-10-02T02:01:52.157Z,4.00
2018-10-02T02:04:22.477Z,5.00
2018-10-02T02:06:52.282Z,5.00
2018-10-02T02:09:21.611Z,5.00
2018-10-02T02:11:50.990Z,5.00
2018-10-02T02:14:20.258Z,5.00
2018-10-02T02:16:50.111Z,4.00
2018-10-02T02:19:19.493Z,7.00
2018-10-02T02:21:48.836Z,5.00
2018-10-02T02:24:18.286Z,5.00
2018-10-02T02:26:47.833Z,6.50
2018-10-02T02:29:17.339Z,6.50
2018-10-02T02:31:46.748Z,7.00
2018-10-02T02:34:16.236Z,5.00
2018-10-02T02:36:45.484Z,5.00
2018-10-02T02:39:15.568Z,3.50
2018-10-02T02:41:44.952Z,5.00
2018-10-02T02:44:15.918Z,3.00
2018-10-02T02:46:46.103Z,5.00
2018-10-02T02:49:21.699Z,3.50
2018-10-02T02:51:52.302Z,4.00
2018-10-02T02:54:24.317Z,4.50
2018-10-02T02:56:54.163Z,3.50
2018-10-02T02:59:24.373Z,5.00
2018-10-02T03:01:54.076Z,5.00
2018-10-02T03:04:25.687Z,3.50
2018-10-02T03:06:55.352Z,5.00
2018-10-02T03:09:25.148Z,3.00
2018-10-02T03:11:54.631Z,4.00
2018-10-02T03:14:25.052Z,5.00
2018-10-02T03:16:54.487Z,5.00
2018-10-02T03:19:23.798Z,8.00
2018-10-02T03:21:53.092Z,5.50
2018-10-02T03:24:22.369Z,7.00
2018-10-02T03:26:51.573Z,7.00
2018-10-02T03:29:20.911Z,7.00
2018-10-02T03:31:50.121Z,8.50
2018-10-02T03:34:19.341Z,10.00
2018-10-02T03:36:48.606Z,11.25
2018-10-02T03:39:17.934Z,9.50
2018-10-02T03:41:47.181Z,11.75
2018-10-02T03:44:16.563Z,8.50
2018-10-02T03:46:45.846Z,11.00
2018-10-02T03:49:15.043Z,11.25
2018-10-02T03:51:44.400Z,10.50
2018-10-02T03:54:13.650Z,11.00
2018-10-02T03:56:42.971Z,11.00
2018-10-02T03:59:12.146Z,12.75
2018-10-02T04:01:41.349Z,9.50
2018-10-02T04:04:10.666Z,12.75
2018-10-02T04:06:39.906Z,12.75
2018-10-02T04:09:10.439Z,12.75
2018-10-02T04:11:39.776Z,13.75
2018-10-02T04:14:09.183Z,12.75
2018-10-02T04:16:38.734Z,14.75
2018-10-02T04:19:08.020Z,13.75
2018-10-02T04:21:38.060Z,11.00
2018-10-02T04:24:08.358Z,13.50
2018-10-02T04:26:38.101Z,13.25
2018-10-02T04:29:07.730Z,12.75
2018-10-02T04:31:37.888Z,13.75
2018-10-02T04:34:07.693Z,12.75
2018-10-02T04:36:36.952Z,13.25
2018-10-02T04:39:08.359Z,13.25
2018-10-02T04:41:37.749Z,13.75
2018-10-02T04:44:07.050Z,11.50
2018-10-02T04:46:36.351Z,12.75
2018-10-02T04:49:05.588Z,12.75
2018-10-02T04:51:34.773Z,13.00
2018-10-02T04:54:03.969Z,12.25
2018-10-02T04:56:33.135Z,12.25
2018-10-02T04:59:02.292Z,11.50
2018-10-02T05:01:31.495Z,13.50
2018-10-02T05:04:00.655Z,13.25
2018-10-02T05:06:29.911Z,11.50
2018-10-02T05:08:59.053Z,13.50
2018-10-02T05:11:28.378Z,13.50
2018-10-02T05:13:57.590Z,14.50
2018-10-02T05:16:26.763Z,12.75
2018-10-02T05:18:55.974Z,13.50
2018-10-02T05:21:25.278Z,12.75
2018-10-02T05:23:54.515Z,11.25
2018-10-02T05:26:23.711Z,13.25
2018-10-02T05:28:52.922Z,13.75
2018-10-02T05:31:22.110Z,12.25
2018-10-02T05:33:53.359Z,12.75
2018-10-02T05:36:22.525Z,11.00
2018-10-02T05:38:51.704Z,13.25
2018-10-02T05:41:20.918Z,9.50
2018-10-02T05:43:50.133Z,11.00
2018-10-02T05:46:19.511Z,12.25
2018-10-02T05:48:48.812Z,14.00
2018-10-02T05:51:18.315Z,11.00
2018-10-02T05:53:48.393Z,11.75
2018-10-02T05:56:17.766Z,11.00
2018-10-02T05:58:47.002Z,11.00
2018-10-02T06:01:16.256Z,12.00
2018-10-02T06:03:45.642Z,11.00
2018-10-02T06:06:14.873Z,7.50
2018-10-02T06:08:44.059Z,10.50
2018-10-02T06:11:13.275Z,10.50
2018-10-02T06:13:42.504Z,11.75
2018-10-02T06:16:11.718Z,7.00
2018-10-02T06:18:41.026Z,9.00
2018-10-02T06:21:10.184Z,7.50
2018-10-02T06:23:39.378Z,9.50
2018-10-02T06:26:08.705Z,11.00
2018-10-02T06:28:38.026Z,9.00
2018-10-02T06:31:07.424Z,9.00
2018-10-02T06:33:36.858Z,9.00
2018-10-02T06:36:06.447Z,9.00
2018-10-02T06:38:35.788Z,9.00
2018-10-02T06:41:04.968Z,7.00
2018-10-02T06:43:34.176Z,9.00
2018-10-02T06:46:03.419Z,10.75
2018-10-02T06:48:32.660Z,9.00
2018-10-02T06:51:02.029Z,10.75
2018-10-02T06:53:31.669Z,10.75
2018-10-02T06:56:01.661Z,10.25
2018-10-02T06:58:30.846Z,10.75
2018-10-02T07:01:00.180Z,6.50
2018-10-02T07:03:30.168Z,10.75
2018-10-02T07:05:59.455Z,8.00
2018-10-02T07:08:28.823Z,10.75
2018-10-02T07:10:57.996Z,9.75
2018-10-02T07:13:27.255Z,9.50
2018-10-02T07:15:58.663Z,10.75
2018-10-02T07:18:28.052Z,11.25
2018-10-02T07:20:57.426Z,9.00
2018-10-02T07:23:26.756Z,10.50
2018-10-02T07:25:56.150Z,7.50
2018-10-02T07:28:43.140Z,10.50
2018-10-02T07:31:13.914Z,9.00
2018-10-02T07:33:50.829Z,9.50
2018-10-02T07:36:36.721Z,8.50
2018-10-02T07:39:11.165Z,12.50
2018-10-02T07:41:42.805Z,13.00
2018-10-02T07:44:15.575Z,10.00
2018-10-02T07:46:47.779Z,10.25
2018-10-02T07:49:32.013Z,11.00
2018-10-02T08:11:14.457Z,9.00
2018-10-02T08:48:28.937Z,12.00
2018-10-02T08:50:59.655Z,10.00
2018-10-02T08:53:31.905Z,11.50
2018-10-02T08:56:04.395Z,12.00
2018-10-02T08:58:35.136Z,10.25
2018-10-02T09:01:10.831Z,11.50
2018-10-02T09:03:41.671Z,10.00
2018-10-02T09:06:21.919Z,10.00
2018-10-02T09:08:53.386Z,9.50
2018-10-02T09:11:22.868Z,10.50
2018-10-02T09:13:57.841Z,10.00
2018-10-02T09:16:30.743Z,10.00
2018-10-02T09:19:01.739Z,10.00
2018-10-02T09:21:32.056Z,8.00
2018-10-02T09:24:01.542Z,11.50
2018-10-02T09:26:33.603Z,8.00
2018-10-02T09:29:03.136Z,8.00
2018-10-02T09:31:38.377Z,8.00
2018-10-02T09:34:13.200Z,7.50
2018-10-02T09:36:48.645Z,8.00
2018-10-02T09:39:22.944Z,11.50
2018-10-02T09:41:57.459Z,9.50
2018-10-02T09:44:26.672Z,8.00
2018-10-02T09:46:57.920Z,8.00
2018-10-02T09:49:27.178Z,8.00
2018-10-02T09:51:56.369Z,7.50
2018-10-02T09:54:25.610Z,9.00
2018-10-02T09:56:54.810Z,9.50
2018-10-02T09:59:23.950Z,10.50
2018-10-02T10:01:58.315Z,7.75
2018-10-02T10:04:27.559Z,7.25
2018-10-02T10:06:57.463Z,10.00
2018-10-02T10:09:26.673Z,12.00
2018-10-02T10:11:55.854Z,8.50
2018-10-02T10:14:25.046Z,9.00
2018-10-02T10:16:54.870Z,10.00
2018-10-02T10:19:24.002Z,10.75
2018-10-02T10:21:53.196Z,10.00
2018-10-02T10:24:22.370Z,10.00
2018-10-02T10:26:51.537Z,10.00
2018-10-02T10:29:20.717Z,12.50
2018-10-02T10:31:49.914Z,10.75
2018-10-02T10:34:19.083Z,9.00
2018-10-02T10:36:48.273Z,10.75
2018-10-02T10:39:17.463Z,10.25
2018-10-02T10:41:46.722Z,8.50
2018-10-02T10:44:15.895Z,10.00
2018-10-02T10:46:45.151Z,11.00
2018-10-02T10:49:14.248Z,12.00
2018-10-02T10:51:43.411Z,10.25
2018-10-02T10:54:12.603Z,11.00
2018-10-02T10:56:41.793Z,15.00
2018-10-02T10:59:11.273Z,10.25
2018-10-02T11:01:40.448Z,10.75
2018-10-02T11:04:09.647Z,8.00
2018-10-02T11:06:38.881Z,9.75
2018-10-02T11:09:09.878Z,10.50
2018-10-02T11:11:39.038Z,9.75
2018-10-02T11:14:08.265Z,9.50
2018-10-02T11:16:37.430Z,11.00
2018-10-02T11:19:06.672Z,10.00
2018-10-02T11:21:35.827Z,10.75
2018-10-02T11:24:05.085Z,10.25
2018-10-02T11:26:34.275Z,11.00
2018-10-02T11:29:04.439Z,10.00
2018-10-02T11:31:33.620Z,9.00
2018-10-02T11:34:02.806Z,13.00
2018-10-02T11:36:32.001Z,9.00
2018-10-02T11:39:01.204Z,10.00
2018-10-02T11:41:30.405Z,11.00
2018-10-02T11:43:59.559Z,12.50
2018-10-02T11:46:28.742Z,12.50
2018-10-02T11:48:58.291Z,10.50
2018-10-02T11:51:27.479Z,11.50
2018-10-02T11:53:56.623Z,9.50
2018-10-02T11:56:25.784Z,11.00
2018-10-02T11:58:54.963Z,11.00
2018-10-02T12:01:24.390Z,10.00
2018-10-02T12:03:53.353Z,11.00
2018-10-02T12:06:22.512Z,9.00
2018-10-02T12:08:51.747Z,11.00
2018-10-02T12:11:20.909Z,11.25
2018-10-02T12:13:50.124Z,9.00
2018-10-02T12:16:19.230Z,8.50
2018-10-02T12:18:48.383Z,7.00
2018-10-02T12:21:17.580Z,8.50
2018-10-02T12:23:46.829Z,10.25
2018-10-02T12:26:15.941Z,8.00
2018-10-02T12:28:45.598Z,7.50
2018-10-02T12:31:14.809Z,6.00
2018-10-02T12:33:43.977Z,6.75
2018-10-02T12:36:13.196Z,6.75
2018-10-02T12:38:43.265Z,6.00
2018-10-02T12:41:12.323Z,4.50
2018-10-02T12:43:41.516Z,6.00
2018-10-02T12:46:10.695Z,4.50
2018-10-02T12:48:39.890Z,6.00
2018-10-02T12:51:09.096Z,7.25
2018-10-02T12:53:38.253Z,4.00
2018-10-02T12:56:07.463Z,6.25
2018-10-02T12:58:37.113Z,4.50
2018-10-02T13:01:06.316Z,6.75
2018-10-02T13:03:35.508Z,3.75
2018-10-02T13:06:04.708Z,5.50
2018-10-02T13:08:33.867Z,3.75
2018-10-02T13:11:03.102Z,4.00
2018-10-02T13:13:32.377Z,5.00
2018-10-02T13:16:01.565Z,5.25
2018-10-02T13:18:30.819Z,5.75
2018-10-02T13:21:00.067Z,3.50
2018-10-02T13:23:29.275Z,3.25
2018-10-02T13:25:58.470Z,4.00
2018-10-02T13:28:27.644Z,2.75
2018-10-02T13:30:57.211Z,3.00
2018-10-02T13:33:26.483Z,2.75
2018-10-02T13:35:55.749Z,2.75
2018-10-02T13:38:24.961Z,3.50
2018-10-02T13:40:54.161Z,3.00
2018-10-02T13:43:23.373Z,3.00
2018-10-02T13:45:52.622Z,3.00
2018-10-02T13:48:22.208Z,2.50
2018-10-02T13:50:51.439Z,1.50
2018-10-02T13:53:20.667Z,3.00
2018-10-02T13:55:49.833Z,2.50
2018-10-02T13:58:19.271Z,1.00
2018-10-02T14:00:48.496Z,3.00
2018-10-02T14:03:17.762Z,1.00
2018-10-02T14:05:46.907Z,1.00
2018-10-02T14:08:16.317Z,1.50
2018-10-02T14:10:45.587Z,3.00
2018-10-02T14:13:14.796Z,2.00
2018-10-02T14:15:43.989Z,2.50
2018-10-02T14:18:13.170Z,3.50
2018-10-02T14:20:42.385Z,1.00
2018-10-02T14:23:13.202Z,2.75
2018-10-02T14:25:42.667Z,1.75
2018-10-02T14:28:13.004Z,1.00
2018-10-02T14:30:42.557Z,1.00
2018-10-02T14:33:12.317Z,3.00
2018-10-02T14:35:41.948Z,1.00
2018-10-02T14:38:11.545Z,1.50
2018-10-02T14:40:41.391Z,2.75
2018-10-02T14:43:11.197Z,1.25
2018-10-02T14:45:41.609Z,1.00
2018-10-02T14:48:11.633Z,1.50
2018-10-02T14:50:40.995Z,1.00
2018-10-02T14:53:12.403Z,3.25
2018-10-02T14:55:43.766Z,3.50
2018-10-02T14:58:13.146Z,1.00
2018-10-02T15:00:42.392Z,1.00
2018-10-02T15:03:11.977Z,1.00
2018-10-02T15:05:43.079Z,1.50
2018-10-02T15:08:13.296Z,1.00
2018-10-02T15:10:43.760Z,1.50
2018-10-02T15:13:14.607Z,1.00
2018-10-02T15:15:46.181Z,1.50
2018-10-02T15:18:19.507Z,1.00
2018-10-02T15:20:51.908Z,1.00
2018-10-02T15:23:34.785Z,1.00
2018-10-02T15:26:15.470Z,0.00
2018-10-02T15:28:44.950Z,3.00
2018-10-02T15:31:14.218Z,1.00
2018-10-02T15:33:43.383Z,1.00
2018-10-02T15:36:12.570Z,0.75
2018-10-02T15:38:42.491Z,0.50
2018-10-02T15:41:12.702Z,0.00
2018-10-02T15:43:42.302Z,1.00
2018-10-02T15:46:11.536Z,1.00
2018-10-02T15:48:41.868Z,1.00
2018-10-02T15:51:11.605Z,1.00
2018-10-02T15:53:42.374Z,1.00
2018-10-02T15:56:24.492Z,1.00
2018-10-02T15:58:56.783Z,1.50
2018-10-02T16:01:28.839Z,1.50
2018-10-02T16:03:59.847Z,3.00
2018-10-02T16:06:36.777Z,3.00
2018-10-02T16:09:07.360Z,2.50
2018-10-02T16:11:38.568Z,2.50
2018-10-02T16:14:08.759Z,1.00
2018-10-02T16:16:41.384Z,1.50
2018-10-02T16:19:12.182Z,1.00
2018-10-02T16:21:43.432Z,1.00
2018-10-02T16:24:14.470Z,1.00
2018-10-02T16:26:44.980Z,2.00
2018-10-02T16:29:14.792Z,1.00
2018-10-02T16:31:44.173Z,1.00
2018-10-02T16:34:14.619Z,2.50
2018-10-02T16:36:44.541Z,2.50
2018-10-02T16:39:14.728Z,1.00
2018-10-02T16:41:44.443Z,1.00
2018-10-02T16:44:14.669Z,3.00
2018-10-02T16:46:44.681Z,1.00
2018-10-02T16:49:13.911Z,3.00
2018-10-02T16:51:43.296Z,1.00
2018-10-02T16:54:13.016Z,3.00
2018-10-02T16:56:42.621Z,1.00
2018-10-02T16:59:13.128Z,1.00
2018-10-02T17:01:43.077Z,3.00
2018-10-02T17:04:12.352Z,1.50
2018-10-02T17:06:41.663Z,3.00
2018-10-02T17:09:11.162Z,1.00
2018-10-02T17:11:41.171Z,3.25
2018-10-02T17:14:10.504Z,1.50
2018-10-02T17:16:39.798Z,1.00
2018-10-02T17:19:09.084Z,1.00
2018-10-02T17:21:38.464Z,1.50
2018-10-02T17:24:08.539Z,1.00
2018-10-02T17:26:38.544Z,3.00
2018-10-02T17:29:07.999Z,1.50
2018-10-02T17:31:37.504Z,1.00
2018-10-02T17:34:06.836Z,1.00
2018-10-02T17:36:36.218Z,1.50
2018-10-02T17:39:08.461Z,1.50
2018-10-02T17:41:38.125Z,2.00
2018-10-02T17:44:07.597Z,1.00
2018-10-02T17:46:38.586Z,3.00
2018-10-02T17:49:08.655Z,1.00
2018-10-02T17:51:38.509Z,3.00
2018-10-02T17:54:08.580Z,3.00
2018-10-02T17:56:40.460Z,1.00
2018-10-02T17:59:10.334Z,3.00
2018-10-02T18:01:40.756Z,2.00
2018-10-02T18:04:10.988Z,1.00
2018-10-02T18:06:42.835Z,3.00
2018-10-02T18:09:13.236Z,3.00
2018-10-02T18:11:43.128Z,1.00
2018-10-02T18:14:13.080Z,2.50
2018-10-02T18:16:45.865Z,3.00
2018-10-02T18:19:15.567Z,4.25
2018-10-02T18:21:45.141Z,1.00
2018-10-02T18:24:15.209Z,5.75
2018-10-02T18:26:45.109Z,4.75
2018-10-02T18:29:14.956Z,4.75
2018-10-02T18:31:45.180Z,10.25
2018-10-02T18:34:15.035Z,9.75
2018-10-02T18:36:45.669Z,8.00
2018-10-02T18:39:15.758Z,7.50
2018-10-02T18:41:45.330Z,7.00
2018-10-02T18:44:15.065Z,7.50
2018-10-02T18:46:44.704Z,6.00
2018-10-02T18:49:14.560Z,6.50
2018-10-02T18:51:44.247Z,7.00
2018-10-02T18:54:14.075Z,8.50
2018-10-02T18:56:44.006Z,12.50
2018-10-02T18:59:13.956Z,10.00
2018-10-02T19:01:43.709Z,8.00
2018-10-02T19:04:13.792Z,11.00
2018-10-02T19:06:43.836Z,8.50
2018-10-02T19:09:15.105Z,13.00
2018-10-02T19:11:49.704Z,11.50
2018-10-02T19:14:20.490Z,15.75
2018-10-02T19:16:55.244Z,16.75
2018-10-02T19:19:30.669Z,16.00
2018-10-02T19:22:00.591Z,13.00
2018-10-02T19:24:30.547Z,16.75
2018-10-02T19:27:01.273Z,16.25
2018-10-02T19:29:31.077Z,14.00
2018-10-02T19:32:09.184Z,15.75
2018-10-02T19:34:39.503Z,15.00
2018-10-02T19:37:15.596Z,14.00
2018-10-02T19:39:44.881Z,13.00
2018-10-02T19:42:14.536Z,12.25
2018-10-02T19:44:43.984Z,10.75
2018-10-02T19:47:14.315Z,11.00
2018-10-02T19:49:44.064Z,8.00
2018-10-02T19:52:14.731Z,10.00
2018-10-02T19:54:44.620Z,10.00
2018-10-02T19:57:18.168Z,11.75
2018-10-02T19:59:47.510Z,10.50
2018-10-02T20:02:16.929Z,11.00
2018-10-02T20:04:46.484Z,11.25
2018-10-02T20:07:16.698Z,11.75
2018-10-02T20:09:46.081Z,11.50
2018-10-02T20:12:15.618Z,13.50
2018-10-02T20:14:44.900Z,10.00
2018-10-02T20:17:14.454Z,12.75
2018-10-02T20:19:43.780Z,10.00
2018-10-02T20:22:13.104Z,9.00
2018-10-02T20:24:42.433Z,10.00
2018-10-02T20:27:11.875Z,9.00
2018-10-02T20:29:41.336Z,11.25
2018-10-02T20:32:10.696Z,10.00
2018-10-02T20:34:40.534Z,10.00
2018-10-02T20:37:10.131Z,12.50
2018-10-02T20:39:39.697Z,8.50
2018-10-02T20:42:08.940Z,9.50
2018-10-02T20:44:39.081Z,9.50
2018-10-02T20:47:08.541Z,9.50
2018-10-02T20:49:37.768Z,8.00
2018-10-02T20:52:06.999Z,9.50
2018-10-02T20:54:36.258Z,9.50
2018-10-02T20:57:05.443Z,10.00
2018-10-02T20:59:34.672Z,6.75
2018-10-02T21:02:03.887Z,8.00
2018-10-02T21:04:33.116Z,9.50
2018-10-02T21:07:02.426Z,7.75
2018-10-02T21:09:32.317Z,8.00
2018-10-02T21:12:01.504Z,9.50
2018-10-02T21:14:30.748Z,12.25
2018-10-02T21:16:59.912Z,11.25
2018-10-02T21:19:29.116Z,10.50
2018-10-02T21:21:58.276Z,8.50
2018-10-02T21:24:27.492Z,13.25
2018-10-02T21:26:56.694Z,13.75
2018-10-02T21:29:28.241Z,13.75
2018-10-02T21:31:57.560Z,15.00
2018-10-02T21:34:26.797Z,16.00
2018-10-02T21:36:56.049Z,13.50
2018-10-02T21:39:27.309Z,17.50
2018-10-02T21:41:56.529Z,15.00
2018-10-02T21:44:25.740Z,11.00
2018-10-02T21:46:54.996Z,10.50
2018-10-02T21:49:24.898Z,12.50
2018-10-02T21:51:54.043Z,15.00
2018-10-02T21:54:23.246Z,11.00
2018-10-02T21:56:52.485Z,10.00
2018-10-02T21:59:21.687Z,10.50
2018-10-02T22:01:50.893Z,10.00
2018-10-02T22:04:20.084Z,8.00
2018-10-02T22:06:49.263Z,10.00
2018-10-02T22:09:18.420Z,8.75
2018-10-02T22:11:47.983Z,8.75
2018-10-02T22:14:17.186Z,10.00
2018-10-02T22:16:46.390Z,11.50
2018-10-02T22:19:15.648Z,13.50
2018-10-02T22:21:47.742Z,11.50
2018-10-02T22:24:17.004Z,11.50
2018-10-02T22:26:46.197Z,10.50
2018-10-02T22:29:15.435Z,12.00
2018-10-02T22:31:44.643Z,12.00
2018-10-02T22:34:14.039Z,9.25
2018-10-02T22:36:43.219Z,12.00
2018-10-02T22:39:12.591Z,8.75
2018-10-02T22:41:43.429Z,9.50
2018-10-02T22:44:12.750Z,8.75
2018-10-02T22:46:42.008Z,9.00
2018-10-02T22:49:11.204Z,8.75
2018-10-02T22:51:40.410Z,8.75
2018-10-02T22:54:13.477Z,10.00
2018-10-02T22:56:42.697Z,9.00
2018-10-02T22:59:11.931Z,10.50
2018-10-02T23:01:41.145Z,9.00
2018-10-02T23:04:10.399Z,9.00
2018-10-02T23:06:39.597Z,9.00
2018-10-02T23:09:10.501Z,10.00
2018-10-02T23:11:39.688Z,10.00
2018-10-02T23:14:09.079Z,12.00
2018-10-02T23:16:38.338Z,8.50
2018-10-02T23:19:07.531Z,10.75
2018-10-02T23:21:36.796Z,8.00
2018-10-02T23:24:06.309Z,9.75
2018-10-02T23:26:35.607Z,7.00
2018-10-02T23:29:04.993Z,8.00
2018-10-02T23:31:34.282Z,8.00
2018-10-02T23:34:03.553Z,7.00
2018-10-02T23:36:32.837Z,9.00
2018-10-02T23:39:02.280Z,8.50
2018-10-02T23:41:31.565Z,7.50
2018-10-02T23:46:40.896Z,9.00
2018-10-02T23:49:10.169Z,10.75
2018-10-02T23:51:39.477Z,8.50
2018-10-02T23:54:09.727Z,9.00
2018-10-02T23:56:39.082Z,7.00
2018-10-02T23:59:08.354Z,9.00
